Orbital elements of FENGYUN 1C DEB
| Launched | 9 May 1999 |
| Flight ended | – |
| Launch site | Taiyuan Space Center, PRC |
| Owner | People's Republic of China |
| NORAD ID | 31386 |
| Date fetched |
Epoch osculation |
Inc. [°] |
Ecc. | RA asc node [hr] |
Arg Peri. [°] |
Mean anom [°] |
Mean motion [rev/day] |
Abs. mag |
| Date fetched |
Epoch osculation |
Inc. [°] |
Ecc. | RA asc node [hr] |
Arg Peri. [°] |
Mean anom [°] |
Mean motion [rev/day] |
Abs. mag |
| 2026 May 05 17:57 | 2026 May 04 11:54:26 | 98.4358 | 0.01942 | 8.7009 | 252.0102 | 105.9803 | 13.86838 | – |
| 2026 May 04 17:57 | 2026 Apr 28 00:04:10 | 98.4361 | 0.01943 | 8.3098 | 270.1028 | 105.9803 | 13.86838 | – |
| 2026 May 03 17:57 | 2026 Apr 28 00:04:10 | 98.4361 | 0.01943 | 8.3098 | 270.1028 | 105.9803 | 13.86838 | – |
| 2026 May 02 17:57 | 2026 Apr 28 00:04:10 | 98.4361 | 0.01943 | 8.3098 | 270.1028 | 105.9803 | 13.86838 | – |
| 2026 May 01 17:56 | 2026 Apr 28 00:04:10 | 98.4361 | 0.01943 | 8.3098 | 270.1028 | 105.9803 | 13.86838 | – |
| 2026 Apr 30 17:56 | 2026 Apr 28 00:04:10 | 98.4361 | 0.01943 | 8.3098 | 270.1028 | 105.9803 | 13.86838 | – |
| 2026 Apr 29 17:57 | 2026 Apr 24 11:13:25 | 98.4322 | 0.01946 | 8.0966 | 280.0437 | 105.9803 | 13.86838 | – |
| 2026 Apr 28 17:56 | 2026 Apr 24 11:13:25 | 98.4322 | 0.01946 | 8.0966 | 280.0437 | 105.9803 | 13.86838 | – |
| 2026 Apr 27 17:58 | 2026 Apr 24 11:13:25 | 98.4322 | 0.01946 | 8.0966 | 280.0437 | 105.9803 | 13.86838 | – |
| 2026 Apr 26 17:58 | 2026 Apr 24 11:13:25 | 98.4322 | 0.01946 | 8.0966 | 280.0437 | 105.9803 | 13.86838 | – |
| 2026 Apr 25 17:58 | 2026 Apr 24 11:13:25 | 98.4322 | 0.01946 | 8.0966 | 280.0437 | 105.9803 | 13.86838 | – |
| 2026 Apr 24 17:59 | 2026 Apr 24 11:13:25 | 98.4322 | 0.01946 | 8.0966 | 280.0437 | 105.9803 | 13.86838 | – |
| 2026 Apr 23 17:57 | 2026 Apr 18 23:37:30 | 98.4301 | 0.01949 | 7.7664 | 295.2047 | 105.9803 | 13.86838 | – |
| 2026 Apr 22 17:57 | 2026 Apr 18 23:37:30 | 98.4301 | 0.01949 | 7.7664 | 295.2047 | 105.9803 | 13.86838 | – |
| 2026 Apr 21 17:57 | 2026 Apr 18 23:37:30 | 98.4301 | 0.01949 | 7.7664 | 295.2047 | 105.9803 | 13.86838 | – |
| 2026 Apr 20 17:57 | 2026 Apr 18 23:37:30 | 98.4301 | 0.01949 | 7.7664 | 295.2047 | 105.9803 | 13.86838 | – |
| 2026 Apr 19 17:58 | 2026 Apr 18 23:37:30 | 98.4301 | 0.01949 | 7.7664 | 295.2047 | 105.9803 | 13.86838 | – |
| 2026 Apr 18 17:56 | 2026 Apr 12 11:46:58 | 98.4315 | 0.01950 | 7.3757 | 313.1611 | 105.9803 | 13.86838 | – |
| 2026 Apr 16 17:57 | 2026 Apr 12 11:46:58 | 98.4315 | 0.01950 | 7.3757 | 313.1611 | 105.9803 | 13.86838 | – |
| 2026 Apr 14 17:57 | 2026 Apr 12 11:46:58 | 98.4315 | 0.01950 | 7.3757 | 313.1611 | 105.9803 | 13.86838 | – |
| 2026 Apr 13 17:57 | 2026 Apr 12 11:46:58 | 98.4315 | 0.01950 | 7.3757 | 313.1611 | 105.9803 | 13.86838 | – |
| 2026 Apr 12 17:57 | 2026 Apr 07 22:41:33 | 98.4328 | 0.01944 | 7.1018 | 325.6120 | 105.9803 | 13.86838 | – |
| 2026 Apr 11 17:57 | 2026 Apr 07 22:41:33 | 98.4328 | 0.01944 | 7.1018 | 325.6120 | 105.9803 | 13.86838 | – |
| 2026 Apr 10 17:58 | 2026 Apr 07 22:41:33 | 98.4328 | 0.01944 | 7.1018 | 325.6120 | 105.9803 | 13.86838 | – |
| 2026 Apr 09 18:01 | 2026 Apr 07 22:41:33 | 98.4328 | 0.01944 | 7.1018 | 325.6120 | 105.9803 | 13.86838 | – |
| 2026 Apr 08 17:57 | 2026 Apr 07 22:41:33 | 98.4328 | 0.01944 | 7.1018 | 325.6120 | 105.9803 | 13.86838 | – |